Time;durP1;ratioP1;P1;durP2;ratioP2;P2;SDS_P1;SDS_P2;PMS_P1;PMS_P2;Temp;Humidity;BMP_temperature;BMP_pressure;BME280_temperature;BME280_humidity;BME280_pressure;Samples;Min_cycle;Max_cycle;Signal;HPM_P1;HPM_P2
2022/06/30 00:00:14;;;;;;;12.82;7.53;;;;;;;19.92;100.00;99795.30;1698521;84;21145;-74
2022/06/30 00:02:41;;;;;;;7.75;7.10;;;;;;;19.87;100.00;99796.79;1681384;84;21006;-72
2022/06/30 00:05:08;;;;;;;7.35;6.55;;;;;;;19.78;100.00;99804.66;1698295;84;21068;-71
2022/06/30 00:07:36;;;;;;;9.38;6.70;;;;;;;19.68;100.00;99804.33;1703339;83;21023;-74
2022/06/30 00:10:04;;;;;;;7.97;6.08;;;;;;;19.57;100.00;99802.92;1702169;84;21524;-77
2022/06/30 00:12:31;;;;;;;7.97;6.53;;;;;;;19.49;100.00;99803.11;1699327;84;21831;-76
2022/06/30 00:14:58;;;;;;;7.97;7.17;;;;;;;19.41;100.00;99806.53;1668314;84;21055;-78
2022/06/30 00:17:25;;;;;;;13.32;6.60;;;;;;;19.30;100.00;99794.77;1701012;82;21575;-77
2022/06/30 00:19:51;;;;;;;6.65;5.90;;;;;;;19.20;100.00;99791.69;1701282;84;20990;-79
2022/06/30 00:22:18;;;;;;;10.90;7.53;;;;;;;19.18;100.00;99791.76;1698467;84;20984;-75
2022/06/30 00:24:45;;;;;;;7.65;6.53;;;;;;;19.23;100.00;99789.73;1696880;84;21277;-76
2022/06/30 00:27:12;;;;;;;6.08;5.58;;;;;;;19.30;100.00;99802.95;1704520;83;21001;-75
2022/06/30 00:29:39;;;;;;;9.03;7.58;;;;;;;19.34;100.00;99805.30;1705020;84;21072;-74
2022/06/30 00:32:07;;;;;;;13.35;6.83;;;;;;;19.34;100.00;99803.95;1708118;83;21561;-77
2022/06/30 00:34:33;;;;;;;7.08;6.28;;;;;;;19.35;100.00;99795.47;1713232;83;21082;-74
2022/06/30 00:37:00;;;;;;;9.28;7.05;;;;;;;19.39;100.00;99793.73;1711846;83;21541;-75
2022/06/30 00:39:29;;;;;;;6.05;5.45;;;;;;;19.32;100.00;99805.63;1695499;84;21514;-73
2022/06/30 00:41:55;;;;;;;8.85;7.28;;;;;;;19.23;100.00;99808.83;1716411;82;21071;-72
2022/06/30 00:44:22;;;;;;;8.25;7.42;;;;;;;19.16;100.00;99822.86;1717084;82;21038;-70
2022/06/30 00:46:49;;;;;;;7.12;6.40;;;;;;;19.03;100.00;99831.84;1710577;83;20968;-73
2022/06/30 00:49:19;;;;;;;6.92;6.22;;;;;;;18.98;100.00;99838.75;1713719;82;21052;-72
2022/06/30 00:51:46;;;;;;;7.72;6.80;;;;;;;18.95;100.00;99824.34;1710459;82;20963;-71
2022/06/30 00:54:13;;;;;;;7.58;6.80;;;;;;;18.94;100.00;99827.39;1696765;84;21100;-71
2022/06/30 00:56:43;;;;;;;9.70;6.92;;;;;;;18.91;100.00;99832.87;1710435;83;20984;-72
2022/06/30 00:59:10;;;;;;;6.97;6.33;;;;;;;18.87;100.00;99831.88;1710775;83;21025;-72
2022/06/30 01:01:37;;;;;;;8.85;7.95;;;;;;;18.91;100.00;99832.87;1710348;83;21090;-71
2022/06/30 01:04:04;;;;;;;9.70;7.35;;;;;;;18.96;100.00;99832.78;1696952;84;21052;-75
2022/06/30 01:06:30;;;;;;;7.65;6.90;;;;;;;19.05;100.00;99821.98;1706575;82;20917;-74
2022/06/30 01:08:58;;;;;;;8.00;6.65;;;;;;;19.00;100.00;99816.63;1688713;83;21047;-72
2022/06/30 01:14:10;;;;;;;7.67;6.95;;;;;;;18.91;100.00;99815.16;1674856;84;22092;-74
2022/06/30 01:16:39;;;;;;;7.53;6.72;;;;;;;18.86;100.00;99814.45;1679786;84;21023;-73
2022/06/30 01:19:07;;;;;;;10.60;6.53;;;;;;;18.81;100.00;99811.27;1669573;85;20922;-74
2022/06/30 01:21:34;;;;;;;9.28;7.42;;;;;;;18.84;100.00;99817.49;1666053;85;21055;-74
2022/06/30 01:24:00;;;;;;;10.80;7.12;;;;;;;18.93;100.00;99818.95;1669240;85;21009;-73
2022/06/30 01:26:30;;;;;;;6.87;6.08;;;;;;;19.02;100.00;99828.05;1681153;85;21062;-69
2022/06/30 01:28:56;;;;;;;8.58;7.87;;;;;;;19.08;100.00;99817.30;1683679;84;21014;-71
2022/06/30 01:31:24;;;;;;;9.15;8.25;;;;;;;19.10;100.00;99825.97;1703924;82;21040;-79
2022/06/30 01:33:51;;;;;;;9.38;7.90;;;;;;;19.02;100.00;99828.05;1702155;83;21009;-76
2022/06/30 01:36:17;;;;;;;8.23;7.37;;;;;;;18.97;100.00;99817.23;1702186;84;21028;-74
2022/06/30 01:38:44;;;;;;;8.63;7.35;;;;;;;18.99;100.00;99819.13;1703781;83;21145;-76
2022/06/30 01:41:12;;;;;;;8.35;7.58;;;;;;;18.93;100.00;99810.78;1703864;82;21024;-75
2022/06/30 01:43:40;;;;;;;7.78;7.10;;;;;;;18.85;100.00;99815.00;1688193;84;21011;-76
2022/06/30 01:46:07;;;;;;;9.53;7.83;;;;;;;18.81;100.00;99810.45;1703770;82;21606;-79
2022/06/30 01:48:34;;;;;;;7.83;7.12;;;;;;;18.86;100.00;99807.08;1688278;84;21108;-83
2022/06/30 01:51:00;;;;;;;9.45;8.23;;;;;;;18.88;100.00;99806.23;1666462;84;21135;-84
2022/06/30 01:53:27;;;;;;;11.50;8.00;;;;;;;18.90;100.00;99800.46;1703443;83;21478;-83
2022/06/30 01:55:54;;;;;;;8.48;6.87;;;;;;;18.87;100.00;99795.08;1703897;82;21067;-82
2022/06/30 01:58:20;;;;;;;9.05;8.05;;;;;;;18.92;100.00;99790.08;1674986;84;21022;-88
2022/06/30 02:00:49;;;;;;;8.00;7.28;;;;;;;18.94;100.00;99782.42;1692393;83;21083;-75
2022/06/30 02:03:15;;;;;;;8.00;7.22;;;;;;;18.92;100.00;99777.27;1698874;82;22428;-74
2022/06/30 02:05:42;;;;;;;8.98;7.33;;;;;;;18.93;100.00;99787.06;1665473;85;20990;-74
2022/06/30 02:08:08;;;;;;;7.62;6.85;;;;;;;18.98;100.00;99789.69;1691887;83;21036;-73
2022/06/30 02:10:35;;;;;;;9.13;7.40;;;;;;;19.14;100.00;99784.72;1703725;83;20973;-75
2022/06/30 02:13:02;;;;;;;11.12;8.35;;;;;;;19.25;100.00;99790.77;1682181;85;21563;-74
2022/06/30 02:15:32;;;;;;;8.58;7.60;;;;;;;19.20;100.00;99799.87;1660295;84;21100;-73
2022/06/30 02:17:57;;;;;;;11.15;7.70;;;;;;;19.21;100.00;99804.77;1703102;82;21572;-74
2022/06/30 02:20:25;;;;;;;11.73;10.45;;;;;;;19.23;100.00;99806.66;1702359;83;21127;-73
2022/06/30 02:22:55;;;;;;;10.60;8.18;;;;;;;19.15;100.00;99806.23;1687694;84;21022;-74
2022/06/30 02:25:23;;;;;;;9.10;7.92;;;;;;;19.07;100.00;99808.87;1688422;85;21511;-74
2022/06/30 02:27:50;;;;;;;7.42;6.72;;;;;;;18.93;100.00;99806.69;1707183;83;22073;-73
2022/06/30 02:30:17;;;;;;;14.18;7.28;;;;;;;18.86;100.00;99809.00;1697250;84;21003;-73
2022/06/30 02:32:47;;;;;;;9.18;7.35;;;;;;;18.85;100.00;99807.41;1688048;84;21525;-73
2022/06/30 02:35:14;;;;;;;9.15;7.22;;;;;;;18.86;100.00;99807.08;1704176;82;21655;-75
2022/06/30 02:37:41;;;;;;;6.65;6.05;;;;;;;18.86;100.00;99811.17;1710620;83;21165;-73
2022/06/30 02:40:08;;;;;;;9.25;7.25;;;;;;;18.84;100.00;99809.87;1697383;84;21115;-74
2022/06/30 02:42:35;;;;;;;14.05;8.50;;;;;;;18.82;100.00;99802.53;1730385;82;21016;-73
2022/06/30 02:45:02;;;;;;;7.75;7.05;;;;;;;18.79;100.00;99801.23;1739976;82;20956;-75
2022/06/30 02:47:32;;;;;;;8.50;7.70;;;;;;;18.72;100.00;99801.62;1714377;82;21095;-75
2022/06/30 02:50:00;;;;;;;8.45;7.55;;;;;;;18.68;100.00;99816.95;1681661;84;21026;-74
2022/06/30 02:52:26;;;;;;;8.18;7.35;;;;;;;18.66;100.00;99803.36;1660608;84;21118;-74
2022/06/30 02:54:53;;;;;;;8.68;7.87;;;;;;;18.64;100.00;99805.59;1710464;83;21022;-73
2022/06/30 02:57:20;;;;;;;12.53;8.13;;;;;;;18.65;100.00;99810.76;1693744;83;21077;-73
2022/06/30 02:59:46;;;;;;;9.35;6.97;;;;;;;18.65;100.00;99809.94;1699868;84;21061;-71
2022/06/30 03:02:13;;;;;;;7.83;7.12;;;;;;;18.63;100.00;99808.88;1718768;82;21580;-72
2022/06/30 03:04:40;;;;;;;8.13;7.42;;;;;;;18.64;100.00;99805.59;1705034;84;21152;-72
2022/06/30 03:07:07;;;;;;;7.00;6.40;;;;;;;18.68;100.00;99807.97;1706889;83;21003;-74
2022/06/30 03:09:34;;;;;;;9.58;8.55;;;;;;;18.79;100.00;99812.69;1694454;83;21071;-74
2022/06/30 03:12:02;;;;;;;9.85;8.03;;;;;;;18.83;100.00;99821.88;1710037;83;21655;-73
2022/06/30 03:14:29;;;;;;;11.88;7.17;;;;;;;18.79;100.00;99823.59;1680403;85;21647;-74
2022/06/30 03:16:56;;;;;;;9.78;8.60;;;;;;;18.80;100.00;99819.18;1697447;84;21009;-74
2022/06/30 03:19:23;;;;;;;7.62;6.83;;;;;;;18.91;100.00;99819.25;1710263;83;20897;-73
2022/06/30 03:21:53;;;;;;;12.78;7.47;;;;;;;19.05;100.00;99817.34;1710279;82;20980;-74
2022/06/30 03:24:18;;;;;;;8.70;7.90;;;;;;;19.18;100.00;99820.39;1708854;82;21095;-75
2022/06/30 03:26:45;;;;;;;7.80;7.10;;;;;;;19.29;100.00;99817.69;1708896;83;21000;-73
2022/06/30 03:29:11;;;;;;;7.78;7.05;;;;;;;19.31;100.00;99812.19;1671827;85;21876;-74
2022/06/30 03:31:38;;;;;;;9.40;8.50;;;;;;;19.37;100.00;99809.63;1688190;85;21041;-73
2022/06/30 03:34:06;;;;;;;9.65;7.35;;;;;;;19.33;100.00;99809.17;1689640;85;21076;-74
2022/06/30 03:36:33;;;;;;;7.50;6.87;;;;;;;19.24;100.00;99812.33;1690781;83;21049;-73
2022/06/30 03:38:59;;;;;;;8.10;7.40;;;;;;;19.27;100.00;99817.20;1688389;84;21582;-74
2022/06/30 03:41:26;;;;;;;8.08;7.03;;;;;;;19.30;100.00;99822.03;1687980;84;21138;-72
2022/06/30 03:43:53;;;;;;;9.35;8.03;;;;;;;19.39;100.00;99822.94;1689618;83;21092;-72
2022/06/30 03:46:20;;;;;;;12.18;8.78;;;;;;;19.40;100.00;99828.65;1689787;84;21027;-73
2022/06/30 03:48:48;;;;;;;8.98;8.18;;;;;;;19.34;100.00;99823.84;1680802;83;21002;-73
2022/06/30 03:51:15;;;;;;;8.60;7.55;;;;;;;19.29;100.00;99827.23;1690756;84;21183;-74
2022/06/30 03:53:41;;;;;;;12.05;8.85;;;;;;;19.26;100.00;99823.76;1686850;84;21022;-73
2022/06/30 03:56:08;;;;;;;8.73;7.50;;;;;;;19.25;100.00;99834.41;1686600;84;20931;-71
2022/06/30 03:58:35;;;;;;;8.85;6.85;;;;;;;19.28;100.00;99841.42;1688674;84;21033;-71
2022/06/30 04:01:01;;;;;;;16.52;9.15;;;;;;;19.32;100.00;99844.38;1690910;84;21057;-71
2022/06/30 04:03:28;;;;;;;7.28;6.55;;;;;;;19.39;100.00;99836.02;1686722;85;21010;-68
2022/06/30 04:05:55;;;;;;;8.65;7.50;;;;;;;19.53;100.00;99839.57;1686951;85;21475;-71
2022/06/30 04:08:21;;;;;;;8.08;7.37;;;;;;;19.67;100.00;99845.00;1686886;84;20993;-70
2022/06/30 04:10:48;;;;;;;9.60;7.70;;;;;;;19.68;100.00;99843.89;1685164;84;21054;-71
2022/06/30 04:13:16;;;;;;;8.85;6.55;;;;;;;19.73;100.00;99845.70;1688339;84;20989;-71
2022/06/30 04:15:43;;;;;;;8.03;7.33;;;;;;;19.81;100.00;99853.97;1688039;84;21077;-72
2022/06/30 04:18:12;;;;;;;9.10;6.92;;;;;;;19.86;100.00;99856.59;1689611;85;21228;-70
2022/06/30 04:20:39;;;;;;;8.53;6.45;;;;;;;19.91;100.00;99864.66;1689622;84;21080;-71
2022/06/30 04:23:05;;;;;;;9.40;8.40;;;;;;;19.86;100.00;99863.97;1668549;85;21014;-72
2022/06/30 04:25:32;;;;;;;8.08;7.30;;;;;;;19.82;100.00;99871.16;1669119;83;21621;-70
2022/06/30 04:28:00;;;;;;;9.83;8.93;;;;;;;19.85;100.00;99868.64;1691356;84;21089;-72
2022/06/30 04:33:12;;;;;;;9.00;7.55;;;;;;;20.03;100.00;99870.97;1684468;84;21258;-71
2022/06/30 04:35:39;;;;;;;12.90;10.32;;;;;;;20.12;100.00;99870.48;1728274;82;21052;-70
2022/06/30 04:38:06;;;;;;;15.60;14.00;;;;;;;20.12;100.00;99869.12;1714978;83;21044;-69
2022/06/30 04:43:19;;;;;;;9.50;8.50;;;;;;;20.15;100.00;99867.67;1697742;84;21146;-71
2022/06/30 04:45:46;;;;;;;10.40;9.28;;;;;;;20.14;100.00;99871.55;1697368;84;21012;-71
2022/06/30 04:48:13;;;;;;;10.13;9.13;;;;;;;20.08;100.00;99861.30;1698812;84;21037;-68
2022/06/30 04:50:40;;;;;;;13.15;10.30;;;;;;;20.08;100.00;99861.30;1699242;84;21044;-71
2022/06/30 04:53:07;;;;;;;10.88;9.78;;;;;;;20.11;100.00;99851.66;1698178;83;21018;-70
2022/06/30 04:55:35;;;;;;;9.93;8.93;;;;;;;20.17;100.00;99860.00;1701195;83;21140;-72
2022/06/30 04:58:03;;;;;;;14.98;10.13;;;;;;;20.20;100.00;99867.01;1697186;84;20965;-72
2022/06/30 05:00:29;;;;;;;16.60;10.80;;;;;;;20.27;100.00;99864.67;1696028;84;21017;-73
2022/06/30 05:02:56;;;;;;;17.37;10.00;;;;;;;20.29;100.00;99856.14;1695882;84;21017;-73
2022/06/30 05:05:23;;;;;;;18.17;13.30;;;;;;;20.37;100.00;99863.65;1695912;84;21064;-71
2022/06/30 05:07:50;;;;;;;20.55;15.93;;;;;;;20.42;100.00;99869.80;1695941;84;21119;-73
2022/06/30 05:10:17;;;;;;;17.07;12.82;;;;;;;20.42;100.00;99869.80;1695724;84;20993;-71
2022/06/30 05:12:45;;;;;;;20.12;17.73;;;;;;;20.45;100.00;99870.53;1698661;83;21045;-74
2022/06/30 05:15:12;;;;;;;27.90;24.47;;;;;;;20.53;100.00;99870.92;1702050;83;20950;-72
2022/06/30 05:17:40;;;;;;;24.90;21.68;;;;;;;20.58;100.00;99872.94;1697906;83;21276;-71
2022/06/30 05:20:08;;;;;;;17.25;13.83;;;;;;;20.63;99.59;99877.47;1656178;86;21173;-70
2022/06/30 05:22:35;;;;;;;10.78;9.78;;;;;;;20.65;99.28;99876.06;1697299;84;21509;-73
2022/06/30 05:27:47;;;;;;;12.88;10.53;;;;;;;20.72;98.88;99873.67;1659238;84;21028;-69
2022/06/30 05:30:15;;;;;;;13.18;10.30;;;;;;;20.73;98.72;99865.73;1669196;85;21077;-72
2022/06/30 05:32:43;;;;;;;10.25;9.05;;;;;;;20.74;98.30;99863.25;1681839;85;21122;-69
2022/06/30 05:35:10;;;;;;;10.05;8.75;;;;;;;20.81;98.29;99871.02;1664474;85;21080;-71
2022/06/30 05:37:38;;;;;;;10.05;9.05;;;;;;;20.91;98.00;99866.63;1680795;85;21064;-77
2022/06/30 05:40:06;;;;;;;9.80;8.80;;;;;;;21.01;96.96;99872.38;1680326;85;21043;-71
2022/06/30 05:42:33;;;;;;;9.58;8.25;;;;;;;21.01;96.56;99880.03;1650872;86;21027;-70
2022/06/30 05:45:00;;;;;;;9.15;8.33;;;;;;;21.07;96.29;99874.68;1688708;84;21309;-68
2022/06/30 05:47:27;;;;;;;13.75;8.10;;;;;;;21.13;95.98;99874.83;1697918;82;21087;-68
2022/06/30 05:49:53;;;;;;;10.75;9.10;;;;;;;21.19;94.62;99883.15;1710423;83;21071;-68
2022/06/30 05:52:20;;;;;;;9.15;8.23;;;;;;;21.21;94.17;99884.18;1709695;83;21128;-70
2022/06/30 05:54:47;;;;;;;10.23;9.15;;;;;;;21.20;93.27;99882.00;1695592;84;22192;-70
2022/06/30 05:57:14;;;;;;;8.43;7.67;;;;;;;21.14;92.98;99875.08;1715703;83;21288;-73
2022/06/30 05:59:41;;;;;;;9.80;7.37;;;;;;;21.13;93.36;99873.45;1714547;83;20932;-71
2022/06/30 06:02:08;;;;;;;17.60;9.03;;;;;;;21.22;94.15;99877.03;1710335;83;21060;-72
2022/06/30 06:04:35;;;;;;;8.15;7.45;;;;;;;21.29;94.17;99865.05;1710384;83;20996;-69
2022/06/30 06:07:03;;;;;;;9.80;7.90;;;;;;;21.39;93.11;99870.03;1710441;83;21023;-69
2022/06/30 06:09:30;;;;;;;8.80;8.00;;;;;;;21.46;92.82;99868.42;1693869;83;22109;-70
2022/06/30 06:11:58;;;;;;;12.23;8.33;;;;;;;21.55;92.24;99870.63;1699441;84;20985;-69
2022/06/30 06:14:25;;;;;;;8.15;7.37;;;;;;;21.62;91.76;99866.88;1711999;82;21092;-70
2022/06/30 06:16:52;;;;;;;10.30;8.00;;;;;;;21.67;90.49;99870.83;1691565;84;21021;-71
2022/06/30 06:19:19;;;;;;;9.08;8.15;;;;;;;21.70;90.28;99865.27;1708104;83;21593;-72
2022/06/30 06:21:45;;;;;;;10.43;9.28;;;;;;;21.75;90.04;99870.03;1680497;85;21149;-68
2022/06/30 06:24:12;;;;;;;8.95;8.15;;;;;;;21.79;89.73;99869.38;1697327;84;21502;-70
2022/06/30 06:26:39;;;;;;;11.60;8.60;;;;;;;21.83;89.01;99868.98;1710619;83;21094;-70
2022/06/30 06:29:06;;;;;;;12.85;9.15;;;;;;;21.80;88.59;99864.97;1708189;82;21039;-70
2022/06/30 06:31:35;;;;;;;17.45;9.90;;;;;;;21.81;89.01;99865.22;1685803;83;21333;-69
2022/06/30 06:34:04;;;;;;;20.55;10.35;;;;;;;21.90;89.30;99867.96;1691065;83;21881;-70
2022/06/30 06:36:31;;;;;;;10.40;9.23;;;;;;;21.96;89.32;99861.23;1688286;84;20922;-70
2022/06/30 06:39:00;;;;;;;13.98;7.80;;;;;;;22.00;88.52;99865.75;1703836;83;21493;-70
2022/06/30 06:41:29;;;;;;;13.35;9.53;;;;;;;22.06;88.02;99858.19;1703630;84;20956;-68
2022/06/30 06:43:56;;;;;;;12.07;8.05;;;;;;;22.12;87.33;99866.47;1703457;82;21024;-70
2022/06/30 06:46:26;;;;;;;16.52;9.18;;;;;;;22.20;86.63;99865.68;1688206;85;21869;-69
2022/06/30 06:48:51;;;;;;;16.42;8.18;;;;;;;22.29;86.48;99863.74;1686575;83;21070;-70
2022/06/30 06:51:18;;;;;;;20.65;8.98;;;;;;;22.38;86.02;99860.43;1686916;85;21527;-69
2022/06/30 06:53:47;;;;;;;36.08;12.20;;;;;;;22.49;85.54;99871.28;1652389;85;21104;-68
2022/06/30 06:56:14;;;;;;;23.10;11.48;;;;;;;22.56;85.34;99871.61;1688051;84;22298;-68
2022/06/30 06:58:42;;;;;;;26.20;12.40;;;;;;;22.59;85.07;99873.69;1687512;84;21814;-68
2022/06/30 07:01:09;;;;;;;20.43;10.53;;;;;;;22.68;85.01;99872.89;1687419;84;21228;-73
2022/06/30 07:03:38;;;;;;;10.23;8.18;;;;;;;22.72;85.26;99871.13;1687871;84;21001;-68
2022/06/30 07:06:05;;;;;;;14.10;8.75;;;;;;;22.77;83.24;99869.59;1703561;82;21059;-71
2022/06/30 07:08:32;;;;;;;8.80;7.97;;;;;;;22.81;83.73;99866.43;1686416;83;21539;-72
2022/06/30 07:11:02;;;;;;;12.88;8.18;;;;;;;22.88;83.45;99872.20;1694445;83;21244;-69
2022/06/30 07:13:30;;;;;;;15.53;9.60;;;;;;;22.94;83.20;99876.39;1673632;85;20936;-70
2022/06/30 07:15:57;;;;;;;13.10;8.05;;;;;;;22.99;83.38;99879.77;1675493;84;21008;-69
2022/06/30 07:18:25;;;;;;;11.30;9.33;;;;;;;23.07;82.78;99879.48;1695379;83;21064;-69
2022/06/30 07:20:52;;;;;;;8.93;7.05;;;;;;;23.15;82.45;99880.61;1702372;82;21553;-71
2022/06/30 07:23:20;;;;;;;8.85;8.05;;;;;;;23.19;81.33;99885.11;1703794;83;21004;-69
2022/06/30 07:25:48;;;;;;;11.08;7.45;;;;;;;23.26;80.46;99890.88;1688091;84;21204;-68
2022/06/30 07:28:15;;;;;;;9.05;6.92;;;;;;;23.30;79.06;99879.50;1703598;84;20984;-70
2022/06/30 07:30:43;;;;;;;8.85;8.05;;;;;;;23.36;78.98;99880.91;1702502;82;21069;-67
2022/06/30 07:33:10;;;;;;;14.33;8.13;;;;;;;23.37;78.80;99881.16;1682897;85;21057;-69
2022/06/30 07:35:37;;;;;;;11.63;8.40;;;;;;;23.39;79.26;99879.46;1702830;83;21798;-70
2022/06/30 07:38:03;;;;;;;19.52;11.45;;;;;;;23.44;79.57;99881.48;1669287;85;20893;-68
2022/06/30 07:40:30;;;;;;;33.83;28.90;;;;;;;23.53;79.14;99884.75;1696276;82;21525;-68
2022/06/30 07:42:57;;;;;;;15.50;10.63;;;;;;;23.59;78.31;99877.38;1671351;85;21037;-67
2022/06/30 07:45:24;;;;;;;19.67;9.88;;;;;;;23.65;77.53;99874.66;1710943;82;21094;-70
2022/06/30 07:47:51;;;;;;;18.27;12.00;;;;;;;23.63;76.67;99879.69;1673285;83;21046;-70
2022/06/30 07:50:18;;;;;;;11.70;9.73;;;;;;;23.58;77.86;99881.81;1697150;84;21009;-69
2022/06/30 07:52:45;;;;;;;11.48;8.63;;;;;;;23.62;78.57;99880.82;1686346;85;21602;-72
2022/06/30 07:55:11;;;;;;;18.30;8.28;;;;;;;23.67;78.36;99882.57;1686460;85;21037;-69
2022/06/30 07:57:42;;;;;;;9.13;7.60;;;;;;;23.71;77.59;99881.57;1686399;84;21018;-69
2022/06/30 08:00:09;;;;;;;10.88;8.40;;;;;;;23.78;77.85;99883.23;1686832;84;21569;-69
2022/06/30 08:02:40;;;;;;;;;;;;;;;23.86;76.89;99880.19;1676334;84;21525;-71
2022/06/30 08:05:07;;;;;;;14.05;8.80;;;;;;;23.92;76.67;99867.88;1684023;84;20182;-72
2022/06/30 08:07:34;;;;;;;14.20;7.92;;;;;;;23.94;75.04;99869.70;1670017;85;21113;-72
2022/06/30 08:10:05;;;;;;;14.50;8.33;;;;;;;23.95;75.16;99867.76;1671164;85;21017;-71
2022/06/30 08:12:33;;;;;;;12.15;9.08;;;;;;;23.97;75.43;99873.17;1703882;84;21098;-68
2022/06/30 08:15:00;;;;;;;9.45;7.95;;;;;;;24.00;75.48;99871.69;1679911;85;21044;-73
2022/06/30 08:17:30;;;;;;;9.83;8.80;;;;;;;24.02;76.08;99871.59;1700493;82;21069;-73
2022/06/30 08:19:57;;;;;;;12.45;8.30;;;;;;;24.06;76.67;99870.36;1680473;83;21021;-72
2022/06/30 08:22:23;;;;;;;8.35;7.55;;;;;;;24.10;76.78;99873.47;1671634;84;21576;-71
2022/06/30 08:24:51;;;;;;;9.73;7.95;;;;;;;24.18;76.79;99878.11;1672147;84;21892;-71
2022/06/30 08:27:17;;;;;;;8.23;7.42;;;;;;;24.28;76.28;99883.77;1718112;82;20997;-68
2022/06/30 08:29:45;;;;;;;9.73;8.73;;;;;;;24.32;74.68;99884.70;1703085;82;21458;-71
2022/06/30 08:32:12;;;;;;;8.45;7.60;;;;;;;24.37;74.76;99889.20;1691938;84;20996;-70
2022/06/30 08:34:39;;;;;;;8.33;7.53;;;;;;;24.42;75.17;99893.92;1697931;84;21536;-76
2022/06/30 08:37:08;;;;;;;7.67;7.03;;;;;;;24.51;74.59;99892.50;1696096;84;21099;-70
2022/06/30 08:42:21;;;;;;;7.95;7.30;;;;;;;24.57;73.35;99879.55;1701633;84;20998;-66
2022/06/30 08:45:36;;;;;;;7.08;6.47;;;;;;;24.64;72.82;99879.02;1701304;84;21030;-67
2022/06/30 08:47:17;;;;;;;9.45;7.70;;;;;;;24.69;72.20;99877.43;1688196;84;20996;-69
2022/06/30 08:49:43;;;;;;;7.37;6.75;;;;;;;24.71;71.83;99880.06;1699387;83;21054;-70
2022/06/30 08:52:10;;;;;;;7.97;7.20;;;;;;;24.76;72.18;99885.92;1698502;84;21017;-70
2022/06/30 08:54:38;;;;;;;9.40;7.25;;;;;;;24.86;72.74;99886.87;1695884;84;21578;-71
2022/06/30 08:57:05;;;;;;;7.22;6.62;;;;;;;24.95;73.21;99882.10;1695874;84;21173;-71
2022/06/30 08:59:33;;;;;;;10.60;8.48;;;;;;;25.03;73.33;99883.16;1681877;84;21522;-69
2022/06/30 09:02:00;;;;;;;7.45;6.75;;;;;;;25.06;72.05;99868.14;1696402;84;21144;-70
2022/06/30 09:04:27;;;;;;;7.67;6.70;;;;;;;25.09;71.34;99877.08;1695571;84;21558;-68
2022/06/30 09:06:54;;;;;;;6.53;6.00;;;;;;;25.15;71.08;99880.42;1695083;84;21077;-69
2022/06/30 09:09:20;;;;;;;6.12;5.53;;;;;;;25.22;70.10;99879.30;1695987;84;21009;-68
2022/06/30 09:11:53;;;;;;;6.50;6.00;;;;;;;25.29;69.77;99885.59;1695931;84;21069;-68
2022/06/30 09:14:38;;;;;;;7.12;6.58;;;;;;;25.35;69.63;99878.72;1695548;84;21260;-67
2022/06/30 09:17:08;;;;;;;11.55;5.33;;;;;;;25.41;69.26;99878.16;1695884;84;20981;-71
2022/06/30 09:19:40;;;;;;;8.30;6.72;;;;;;;25.42;67.95;99872.86;1695868;84;21033;-70
2022/06/30 09:22:08;;;;;;;6.37;5.65;;;;;;;25.48;67.89;99872.87;1696391;83;21096;-71
2022/06/30 09:24:35;;;;;;;7.37;6.72;;;;;;;25.51;68.22;99876.90;1698793;84;21085;-70
2022/06/30 09:27:24;;;;;;;7.67;6.62;;;;;;;25.52;68.47;99886.17;1697251;84;21156;-71
2022/06/30 09:29:58;;;;;;;9.63;8.65;;;;;;;25.53;68.19;99885.61;1686224;83;21118;-70
2022/06/30 09:32:25;;;;;;;8.23;6.92;;;;;;;25.59;68.07;99885.64;1710897;83;21049;-69
2022/06/30 09:34:52;;;;;;;6.75;6.10;;;;;;;25.69;67.51;99881.62;1697330;84;21010;-70
2022/06/30 09:37:23;;;;;;;7.58;6.40;;;;;;;25.78;66.59;99878.16;1708903;83;20948;-70
2022/06/30 09:39:57;;;;;;;6.40;5.80;;;;;;;25.86;65.73;99876.65;1708926;84;21134;-69
2022/06/30 09:42:41;;;;;;;10.23;8.40;;;;;;;25.86;63.49;99878.59;1694687;84;21028;-69
2022/06/30 09:45:13;;;;;;;7.03;5.55;;;;;;;25.93;64.42;99887.10;1695705;84;21082;-69
2022/06/30 09:47:54;;;;;;;6.67;6.15;;;;;;;25.92;62.46;99886.30;1682282;84;20965;-70
2022/06/30 09:50:21;;;;;;;5.72;5.22;;;;;;;25.87;63.61;99886.53;1696091;84;21096;-70
2022/06/30 09:53:10;;;;;;;6.65;6.05;;;;;;;25.87;64.75;99885.72;1695110;84;21103;-68
2022/06/30 09:55:44;;;;;;;7.33;6.72;;;;;;;25.94;65.41;99885.95;1704497;84;21033;-71
2022/06/30 09:58:35;;;;;;;6.12;5.53;;;;;;;26.07;64.55;99879.83;1680599;85;21095;-69
2022/06/30 10:01:02;;;;;;;6.42;5.83;;;;;;;26.12;64.22;99880.97;1680428;85;20955;-69
2022/06/30 10:03:31;;;;;;;4.72;4.33;;;;;;;26.23;64.04;99874.66;1680213;85;21047;-72
2022/06/30 10:06:10;;;;;;;5.70;5.30;;;;;;;26.38;62.15;99871.70;1680355;85;21234;-68
2022/06/30 10:08:38;;;;;;;5.15;4.78;;;;;;;26.54;61.24;99875.33;1668588;85;21581;-70
2022/06/30 10:11:05;;;;;;;6.05;5.55;;;;;;;26.63;59.22;99880.11;1669172;86;21097;-72
2022/06/30 10:13:37;;;;;;;5.30;4.25;;;;;;;26.71;60.12;99881.13;1678143;85;21009;-68
2022/06/30 10:16:06;;;;;;;5.35;4.85;;;;;;;26.85;59.95;99876.80;1653188;86;21829;-72
2022/06/30 10:18:39;;;;;;;7.92;5.08;;;;;;;26.97;57.50;99879.27;1680751;85;21666;-73
2022/06/30 10:21:05;;;;;;;6.28;4.87;;;;;;;26.92;57.43;99870.67;1683783;84;21597;-70
2022/06/30 10:23:33;;;;;;;5.12;4.72;;;;;;;26.87;58.30;99866.78;1699373;83;21056;-69
2022/06/30 10:26:02;;;;;;;5.95;5.40;;;;;;;26.90;58.52;99867.48;1727748;83;47389;-67
2022/06/30 10:28:30;;;;;;;5.83;5.33;;;;;;;26.98;58.07;99864.31;1720198;83;20984;-86
2022/06/30 10:31:15;;;;;;;5.50;5.10;;;;;;;27.07;59.27;99867.12;1691738;84;21307;-76
2022/06/30 10:34:03;;;;;;;6.10;5.50;;;;;;;27.16;59.79;99873.84;1704317;84;21437;-82
2022/06/30 10:36:33;;;;;;;7.78;4.80;;;;;;;27.17;59.21;99864.41;1688345;84;21037;-85
2022/06/30 10:39:08;;;;;;;4.90;4.50;;;;;;;27.23;58.08;99861.03;1701725;82;21606;-70
2022/06/30 10:41:44;;;;;;;6.28;4.83;;;;;;;27.26;57.62;99862.27;1688252;85;21025;-72
2022/06/30 10:44:16;;;;;;;7.87;5.30;;;;;;;27.26;58.00;99859.50;1687215;84;21487;-73
2022/06/30 10:46:56;;;;;;;;;;;;;;;27.34;56.02;99864.03;1687687;82;28509;-84
2022/06/30 10:49:24;;;;;;;5.87;5.15;;;;;;;27.42;56.51;99867.22;1669304;85;20447;-72
2022/06/30 10:52:16;;;;;;;5.53;4.92;;;;;;;27.46;57.10;99870.86;1666571;84;21011;-71
2022/06/30 10:54:45;;;;;;;5.35;4.67;;;;;;;27.48;56.01;99862.22;1658636;85;21030;-74
2022/06/30 10:57:18;;;;;;;4.92;4.45;;;;;;;27.50;57.23;99862.68;1688008;84;21190;-74
2022/06/30 10:59:45;;;;;;;5.00;4.45;;;;;;;27.53;52.20;99866.90;1688068;84;21137;-77
2022/06/30 11:02:17;;;;;;;4.00;3.60;;;;;;;27.57;51.65;99868.39;1692407;83;20996;-73
2022/06/30 11:04:50;;;;;;;6.35;4.55;;;;;;;27.54;50.35;99861.60;1686397;84;21093;-67
2022/06/30 11:07:23;;;;;;;5.65;3.60;;;;;;;27.55;50.92;99861.83;1674703;85;21002;-72
2022/06/30 11:09:57;;;;;;;4.05;3.75;;;;;;;27.57;51.08;99851.23;1687466;84;21104;-89
2022/06/30 11:12:38;;;;;;;6.50;5.20;;;;;;;27.52;49.33;99857.61;1718644;83;20984;-70
2022/06/30 11:15:06;;;;;;;4.42;4.05;;;;;;;27.46;51.42;99854.86;1718674;82;22038;-93
2022/06/30 11:17:37;;;;;;;4.62;4.22;;;;;;;27.32;53.39;99854.75;1706656;82;21040;-80
2022/06/30 11:20:10;;;;;;;4.72;3.95;;;;;;;27.33;52.01;99854.17;1688489;85;20953;-79
2022/06/30 11:22:36;;;;;;;3.77;3.45;;;;;;;27.34;49.74;99846.08;1658238;85;21883;-78
2022/06/30 11:27:17;;;;;;;8.40;4.50;;;;;;;27.36;48.62;99845.16;1688384;84;21096;-81
2022/06/30 11:27:43;;;;;;;4.83;4.33;;;;;;;27.52;48.95;99845.98;1648405;86;21062;-71
2022/06/30 11:30:11;;;;;;;8.38;4.55;;;;;;;27.60;49.76;99850.50;1660609;86;21057;-73
2022/06/30 11:32:38;;;;;;;4.67;4.28;;;;;;;27.67;52.42;99847.11;1675878;85;21004;-75
2022/06/30 11:35:07;;;;;;;3.27;3.08;;;;;;;27.70;52.73;99848.56;1660748;85;21188;-77
2022/06/30 11:37:34;;;;;;;5.90;3.77;;;;;;;27.69;48.01;99841.43;1696764;83;21009;-77
2022/06/30 11:40:07;;;;;;;5.20;4.08;;;;;;;27.74;48.89;99840.34;1673473;85;21115;-69
2022/06/30 11:42:34;;;;;;;3.60;3.30;;;;;;;27.77;48.76;99838.23;1681854;84;21026;-70
2022/06/30 11:45:01;;;;;;;4.47;4.08;;;;;;;27.81;46.63;99839.13;1718887;82;21087;-73